Time;durP1;ratioP1;P1;durP2;ratioP2;P2;SDS_P1;SDS_P2;PMS_P1;PMS_P2;Temp;Humidity;BMP_temperature;BMP_pressure;BME280_temperature;BME280_humidity;BME280_pressure;Samples;Min_cycle;Max_cycle;Signal;HPM_P1;HPM_P2
2022/02/21 00:00:06;;;;;;;0.30;0.30;;;;;;;10.65;66.55;95362.13;5036029;28;20206;-69
2022/02/21 00:02:32;;;;;;;0.20;0.20;;;;;;;10.69;66.33;95344.91;5035129;28;20209;-69
2022/02/21 00:04:59;;;;;;;0.20;0.20;;;;;;;10.54;66.46;95342.44;5036109;28;20212;-69
2022/02/21 00:07:27;;;;;;;1.50;0.47;;;;;;;10.82;65.65;95343.13;5035944;28;20201;-70
2022/02/21 00:09:53;;;;;;;0.50;0.50;;;;;;;10.70;65.54;95333.38;5035499;28;20217;-69
2022/02/21 00:12:20;;;;;;;0.20;0.20;;;;;;;10.80;65.32;95324.06;5037979;28;20208;-70
2022/02/21 00:14:46;;;;;;;0.20;0.20;;;;;;;10.59;65.82;95312.84;5039816;28;20220;-69
2022/02/21 00:17:13;;;;;;;0.30;0.30;;;;;;;10.77;65.55;95318.38;5038894;28;20221;-70
2022/02/21 00:19:40;;;;;;;0.63;0.43;;;;;;;10.75;65.68;95312.50;5039483;28;20255;-70
2022/02/21 00:22:06;;;;;;;5.73;0.60;;;;;;;10.80;65.61;95320.63;5039422;28;20225;-69
2022/02/21 00:24:34;;;;;;;0.20;0.20;;;;;;;11.03;65.43;95321.84;5038897;28;20205;-70
2022/02/21 00:27:00;;;;;;;3.80;0.33;;;;;;;10.71;66.18;95316.56;5038781;28;20216;-70
2022/02/21 00:29:28;;;;;;;0.93;0.87;;;;;;;10.77;65.99;95321.00;5039813;28;20753;-69
2022/02/21 00:31:54;;;;;;;2.60;0.40;;;;;;;10.75;66.38;95291.44;5038479;28;20275;-69
2022/02/21 00:34:21;;;;;;;0.37;0.37;;;;;;;10.63;67.06;95287.78;5038629;28;20227;-70
2022/02/21 00:36:47;;;;;;;0.50;0.50;;;;;;;10.70;67.00;95291.22;5039705;28;20247;-70
2022/02/21 00:39:13;;;;;;;0.47;0.30;;;;;;;10.60;67.53;95264.44;5038973;28;20205;-69
2022/02/21 00:41:41;;;;;;;0.30;0.30;;;;;;;10.78;67.73;95277.84;5038901;28;20221;-70
2022/02/21 00:44:08;;;;;;;1.83;0.30;;;;;;;10.51;68.09;95265.63;5035376;28;20673;-69
2022/02/21 00:46:34;;;;;;;4.37;0.40;;;;;;;10.51;68.10;95247.19;5039010;28;20213;-69
2022/02/21 00:49:01;;;;;;;0.20;0.20;;;;;;;10.56;68.02;95234.25;5039103;28;20212;-70
2022/02/21 00:51:28;;;;;;;0.90;0.27;;;;;;;10.39;68.58;95225.13;5038471;28;20320;-69
2022/02/21 00:53:55;;;;;;;0.27;0.27;;;;;;;10.50;68.23;95213.97;5038003;28;20215;-69
2022/02/21 00:56:21;;;;;;;1.87;0.43;;;;;;;10.30;69.04;95225.47;5039064;28;20201;-69
2022/02/21 00:58:49;;;;;;;0.23;0.23;;;;;;;10.56;68.62;95198.16;5038462;28;20220;-69
2022/02/21 01:01:15;;;;;;;2.93;0.53;;;;;;;10.37;68.91;95177.09;5038243;28;20225;-70
2022/02/21 01:03:43;;;;;;;0.33;0.20;;;;;;;10.30;69.07;95180.72;5038341;28;20209;-69
2022/02/21 01:06:10;;;;;;;0.30;0.30;;;;;;;10.26;69.34;95185.59;5038754;28;20253;-69
2022/02/21 01:08:37;;;;;;;2.07;0.40;;;;;;;10.24;69.30;95177.06;5038557;28;20758;-68
2022/02/21 01:11:04;;;;;;;0.20;0.20;;;;;;;10.44;68.89;95165.56;5038421;28;21151;-69
2022/02/21 01:13:30;;;;;;;0.30;0.30;;;;;;;10.25;69.05;95170.00;5038031;28;20247;-69
2022/02/21 01:15:58;;;;;;;0.20;0.20;;;;;;;10.49;68.71;95149.97;5038294;28;20217;-68
2022/02/21 01:18:25;;;;;;;0.50;0.50;;;;;;;10.34;68.74;95153.81;5038476;28;20221;-69
2022/02/21 01:20:51;;;;;;;0.30;0.30;;;;;;;10.35;68.88;95137.00;5038520;28;20591;-69
2022/02/21 01:23:17;;;;;;;7.90;0.50;;;;;;;10.34;68.45;95132.75;5036315;28;20205;-68
2022/02/21 01:25:44;;;;;;;0.87;0.40;;;;;;;10.44;68.43;95135.78;5038637;28;20197;-69
2022/02/21 01:28:10;;;;;;;2.13;0.40;;;;;;;10.48;68.02;95105.41;5038233;28;20211;-69
2022/02/21 01:30:37;;;;;;;0.33;0.33;;;;;;;10.35;68.29;95105.41;5038021;28;20221;-69
2022/02/21 01:33:05;;;;;;;0.83;0.50;;;;;;;10.62;68.09;95118.34;5037713;28;20580;-70
2022/02/21 01:35:32;;;;;;;0.23;0.23;;;;;;;10.24;68.61;95106.00;5038501;28;20201;-69
2022/02/21 01:37:58;;;;;;;0.20;0.20;;;;;;;10.24;68.71;95102.56;5037855;28;20732;-70
2022/02/21 01:40:25;;;;;;;1.80;1.03;;;;;;;10.34;68.55;95120.38;5037357;28;20221;-69
2022/02/21 01:42:52;;;;;;;1.00;0.73;;;;;;;10.47;67.71;95098.50;5037068;28;20673;-69
2022/02/21 01:45:19;;;;;;;0.97;0.30;;;;;;;10.31;68.10;95100.72;5038803;28;20260;-69
2022/02/21 01:47:45;;;;;;;0.10;0.10;;;;;;;10.33;68.11;95071.38;5037958;28;20197;-69
2022/02/21 01:50:13;;;;;;;1.87;0.50;;;;;;;10.53;67.52;95066.09;5037649;28;20320;-69
2022/02/21 01:52:41;;;;;;;0.33;0.33;;;;;;;10.54;67.96;95073.00;5036932;28;20209;-69
2022/02/21 01:55:08;;;;;;;2.33;0.40;;;;;;;10.48;67.92;95069.31;5037770;28;20212;-70
2022/02/21 01:57:35;;;;;;;2.10;0.60;;;;;;;10.46;67.96;95060.00;5037667;28;20275;-70
2022/02/21 02:00:01;;;;;;;0.20;0.20;;;;;;;10.33;68.72;95057.41;5037815;28;20201;-69
2022/02/21 02:02:28;;;;;;;0.20;0.20;;;;;;;10.39;68.66;95054.75;5036548;28;20693;-69
2022/02/21 02:04:54;;;;;;;0.40;0.40;;;;;;;10.29;68.95;95036.97;5037627;28;20576;-69
2022/02/21 02:07:22;;;;;;;0.40;0.40;;;;;;;10.40;68.90;95035.31;5037271;28;20205;-69
2022/02/21 02:09:49;;;;;;;1.40;1.27;;;;;;;10.32;68.60;95075.03;5037176;28;20206;-69
2022/02/21 02:12:15;;;;;;;2.00;1.13;;;;;;;10.25;69.08;95039.19;5036586;28;20228;-69
2022/02/21 02:14:43;;;;;;;0.30;0.30;;;;;;;10.32;69.40;95048.69;5037414;28;20212;-69
2022/02/21 02:17:11;;;;;;;0.33;0.33;;;;;;;10.47;69.36;95056.38;5037192;28;20201;-69
2022/02/21 02:19:40;;;;;;;0.20;0.20;;;;;;;10.40;69.79;95030.03;5036792;28;20229;-69
2022/02/21 02:22:13;;;;;;;0.80;0.73;;;;;;;10.57;68.99;95025.94;5036870;28;20240;-68
2022/02/21 02:24:41;;;;;;;0.20;0.20;;;;;;;10.40;69.31;95018.72;5037317;28;20585;-69
2022/02/21 02:27:09;;;;;;;1.60;0.30;;;;;;;10.42;69.03;95033.28;5037533;28;20216;-69
2022/02/21 02:29:36;;;;;;;1.00;0.37;;;;;;;10.47;69.27;95008.97;5037035;28;20243;-70
2022/02/21 02:32:03;;;;;;;0.20;0.20;;;;;;;10.29;70.59;95024.59;5036847;28;20787;-68
2022/02/21 02:34:30;;;;;;;0.50;0.50;;;;;;;10.35;70.70;94997.44;5036140;28;20205;-69
2022/02/21 02:36:56;;;;;;;0.67;0.40;;;;;;;10.28;70.69;94994.00;5036918;28;20205;-69
2022/02/21 02:39:25;;;;;;;3.83;0.80;;;;;;;10.50;70.46;94980.41;5036962;28;20241;-69
2022/02/21 02:41:52;;;;;;;2.40;0.77;;;;;;;10.19;70.55;94989.97;5036974;28;20225;-69
2022/02/21 02:44:19;;;;;;;0.30;0.30;;;;;;;10.20;70.47;94983.69;5032833;28;20626;-69
2022/02/21 02:46:45;;;;;;;0.30;0.30;;;;;;;10.30;70.40;94960.41;5037261;28;20232;-69
2022/02/21 02:49:12;;;;;;;0.20;0.20;;;;;;;10.19;70.47;94950.47;5036865;28;20205;-69
2022/02/21 02:51:38;;;;;;;0.83;0.30;;;;;;;10.18;70.72;94946.22;5036646;28;20221;-69
2022/02/21 02:54:05;;;;;;;0.30;0.30;;;;;;;10.32;70.45;94926.75;5035829;28;20583;-69
2022/02/21 02:56:33;;;;;;;3.20;0.40;;;;;;;10.36;69.77;94960.38;5037149;28;20208;-69
2022/02/21 02:59:00;;;;;;;0.23;0.23;;;;;;;10.19;70.02;94947.84;5036887;28;20235;-69
2022/02/21 03:01:26;;;;;;;1.23;0.40;;;;;;;10.24;69.76;94940.16;5036459;28;20228;-69
2022/02/21 03:03:53;;;;;;;1.30;0.57;;;;;;;10.27;69.73;94944.19;5035835;28;20208;-69
2022/02/21 03:06:19;;;;;;;0.83;0.57;;;;;;;10.18;69.90;94943.59;5037015;28;20209;-69
2022/02/21 03:08:46;;;;;;;0.50;0.40;;;;;;;10.32;69.42;94931.22;5036950;28;20208;-69
2022/02/21 03:11:12;;;;;;;0.30;0.30;;;;;;;10.26;69.98;94927.59;5036573;28;20227;-70
2022/02/21 03:13:41;;;;;;;0.33;0.33;;;;;;;10.43;69.98;94911.13;5036041;28;20205;-70
2022/02/21 03:16:08;;;;;;;0.40;0.40;;;;;;;10.22;70.12;94909.78;5036292;28;20670;-69
2022/02/21 03:18:34;;;;;;;0.23;0.23;;;;;;;10.26;69.97;94924.97;5035831;28;21143;-69
2022/02/21 03:21:01;;;;;;;0.63;0.40;;;;;;;10.20;70.21;94901.31;5036691;28;20233;-69
2022/02/21 03:23:28;;;;;;;0.20;0.20;;;;;;;10.30;70.00;94912.19;5036044;28;20232;-70
2022/02/21 03:25:55;;;;;;;0.30;0.23;;;;;;;10.25;70.56;94902.28;5036587;28;20212;-70
2022/02/21 03:28:21;;;;;;;0.30;0.30;;;;;;;10.25;70.60;94904.91;5037124;28;20201;-70
2022/02/21 03:30:52;;;;;;;1.60;0.67;;;;;;;10.45;70.63;94895.94;5036426;28;20231;-70
2022/02/21 03:33:18;;;;;;;0.40;0.40;;;;;;;10.17;70.75;94910.41;5035328;28;20205;-70
2022/02/21 03:35:45;;;;;;;0.20;0.20;;;;;;;10.22;71.33;94902.72;5036817;28;20201;-70
2022/02/21 03:38:11;;;;;;;0.20;0.20;;;;;;;10.16;71.09;94906.16;5036614;28;20229;-69
2022/02/21 03:40:38;;;;;;;0.40;0.30;;;;;;;10.21;71.08;94872.13;5032879;28;20270;-70
2022/02/21 03:43:05;;;;;;;0.30;0.30;;;;;;;10.11;71.67;94877.00;5033168;28;20200;-70
2022/02/21 03:45:32;;;;;;;0.30;0.30;;;;;;;10.16;71.33;94850.88;5036725;28;20205;-70
2022/02/21 03:47:59;;;;;;;3.37;0.50;;;;;;;10.26;71.46;94848.63;5039996;28;20678;-70
2022/02/21 03:50:26;;;;;;;0.30;0.30;;;;;;;10.04;71.96;94878.03;5039804;28;20984;-70
2022/02/21 03:52:53;;;;;;;0.67;0.40;;;;;;;10.05;72.13;94872.56;5039684;28;21141;-70
2022/02/21 03:55:19;;;;;;;0.30;0.30;;;;;;;10.01;72.17;94868.75;5039916;28;20205;-69
2022/02/21 03:57:47;;;;;;;0.73;0.53;;;;;;;9.98;72.88;94860.44;5039701;28;20213;-69
2022/02/21 04:00:15;;;;;;;0.27;0.27;;;;;;;10.01;73.17;94855.56;5040258;28;20229;-70
2022/02/21 04:02:43;;;;;;;0.20;0.20;;;;;;;10.03;72.89;94832.50;5039707;28;20209;-70
2022/02/21 04:05:14;;;;;;;0.30;0.30;;;;;;;10.03;73.19;94858.81;5039631;28;20209;-69
2022/02/21 04:07:42;;;;;;;0.30;0.30;;;;;;;9.93;73.03;94871.56;5040440;28;20220;-70
2022/02/21 04:10:10;;;;;;;21.77;0.50;;;;;;;10.08;72.97;94889.78;5039891;28;20208;-69
2022/02/21 04:12:36;;;;;;;0.20;0.20;;;;;;;10.00;72.67;94861.84;5038876;28;20198;-70
2022/02/21 04:15:03;;;;;;;0.63;0.30;;;;;;;9.98;73.15;94861.25;5039407;28;20213;-70
2022/02/21 04:17:39;;;;;;;0.20;0.20;;;;;;;10.04;72.79;94857.81;5040342;28;20236;-69
2022/02/21 04:20:07;;;;;;;0.93;0.43;;;;;;;10.10;73.02;94856.16;5039123;28;20221;-70
2022/02/21 04:22:34;;;;;;;0.40;0.40;;;;;;;10.04;74.02;94847.28;5038349;28;20201;-70
2022/02/21 04:25:01;;;;;;;0.33;0.33;;;;;;;9.88;74.68;94842.44;5040147;28;20209;-70
2022/02/21 04:27:28;;;;;;;0.20;0.20;;;;;;;9.65;77.33;94843.91;5039203;28;20283;-70
2022/02/21 04:29:54;;;;;;;0.30;0.30;;;;;;;9.70;78.47;94823.84;5039087;28;20201;-69
2022/02/21 04:32:20;;;;;;;2.10;0.43;;;;;;;9.70;79.83;94813.34;5038798;28;20212;-70
2022/02/21 04:34:47;;;;;;;0.70;0.40;;;;;;;9.45;81.00;94800.25;5039284;28;20582;-70
2022/02/21 04:37:13;;;;;;;0.27;0.27;;;;;;;9.45;81.68;94808.13;5038829;28;20209;-70
2022/02/21 04:39:41;;;;;;;0.30;0.30;;;;;;;9.68;81.30;94824.28;5039577;28;20245;-69
2022/02/21 04:42:08;;;;;;;0.57;0.43;;;;;;;9.57;81.79;94809.13;5038921;28;20256;-70
2022/02/21 04:44:35;;;;;;;0.50;0.43;;;;;;;9.48;81.79;94832.19;5036352;28;20209;-69
2022/02/21 04:47:01;;;;;;;0.27;0.27;;;;;;;9.47;80.88;94827.13;5039231;28;20211;-69
2022/02/21 04:49:29;;;;;;;1.70;1.03;;;;;;;9.47;80.89;94903.38;5039089;28;20194;-70
2022/02/21 04:51:57;;;;;;;0.73;0.37;;;;;;;9.45;82.77;95021.09;5038885;28;20224;-70
2022/02/21 04:54:24;;;;;;;0.27;0.23;;;;;;;7.56;82.79;95059.50;5038326;28;20205;-70
2022/02/21 04:56:52;;;;;;;0.77;0.50;;;;;;;5.35;87.55;95112.44;5038877;28;20232;-70
2022/02/21 04:59:18;;;;;;;0.20;0.20;;;;;;;3.79;93.46;95105.59;5038662;28;20220;-71
2022/02/21 05:01:45;;;;;;;0.27;0.27;;;;;;;3.46;96.32;95159.59;5038623;28;20228;-70
2022/02/21 05:04:11;;;;;;;0.30;0.30;;;;;;;3.30;97.47;95138.75;5037921;28;20213;-69
2022/02/21 05:06:38;;;;;;;0.20;0.20;;;;;;;3.21;99.05;95140.53;5038811;28;20207;-71
2022/02/21 05:09:04;;;;;;;0.30;0.30;;;;;;;3.46;99.18;95142.19;5038853;28;20205;-71
2022/02/21 05:11:31;;;;;;;0.30;0.30;;;;;;;3.55;98.47;95143.03;5037940;28;20328;-71
2022/02/21 05:13:59;;;;;;;0.30;0.30;;;;;;;3.74;97.25;95159.16;5038225;28;20204;-71
2022/02/21 05:16:25;;;;;;;0.40;0.40;;;;;;;3.67;94.29;95158.97;5038651;28;20205;-70
2022/02/21 05:18:52;;;;;;;0.30;0.30;;;;;;;3.68;93.08;95139.78;5038318;28;20575;-71
2022/02/21 05:21:18;;;;;;;0.87;0.50;;;;;;;3.71;93.04;95154.28;5038298;28;20228;-70
2022/02/21 05:23:45;;;;;;;0.30;0.30;;;;;;;3.72;93.82;95151.50;5038916;28;20208;-70
2022/02/21 05:26:11;;;;;;;0.93;0.60;;;;;;;3.77;94.30;95141.41;5038217;28;21063;-70
2022/02/21 05:28:37;;;;;;;0.30;0.30;;;;;;;3.61;94.71;95168.44;5037759;28;20201;-70
2022/02/21 05:31:05;;;;;;;0.30;0.30;;;;;;;3.71;96.01;95139.44;5038688;28;20224;-69
2022/02/21 05:33:32;;;;;;;3.40;0.60;;;;;;;3.53;95.78;95130.16;5037477;28;20575;-69
2022/02/21 05:35:58;;;;;;;0.40;0.40;;;;;;;3.66;92.32;95131.28;5038127;28;20235;-69
2022/02/21 05:38:25;;;;;;;0.23;0.23;;;;;;;3.88;90.96;95122.84;5038426;28;20200;-69
2022/02/21 05:40:51;;;;;;;4.83;0.70;;;;;;;3.94;89.57;95140.44;5037903;28;20236;-70
2022/02/21 05:43:18;;;;;;;0.30;0.30;;;;;;;4.17;89.64;95153.63;5034844;28;20212;-70
2022/02/21 05:45:44;;;;;;;1.10;0.63;;;;;;;3.99;88.68;95166.81;5038221;28;20234;-71
2022/02/21 05:48:12;;;;;;;0.30;0.30;;;;;;;4.37;89.17;95153.09;5037971;28;20659;-72
2022/02/21 05:50:38;;;;;;;3.30;0.50;;;;;;;4.20;87.87;95141.06;5037537;28;20224;-72
2022/02/21 05:53:05;;;;;;;0.37;0.37;;;;;;;4.22;87.07;95149.53;5037479;28;20213;-72
2022/02/21 05:55:31;;;;;;;0.20;0.20;;;;;;;4.28;86.53;95117.59;5037947;28;20212;-72
2022/02/21 05:57:58;;;;;;;0.40;0.40;;;;;;;4.38;83.58;95113.00;5037272;28;20209;-72
2022/02/21 06:00:26;;;;;;;0.30;0.30;;;;;;;4.47;83.16;95125.03;5037365;28;20276;-72
2022/02/21 06:02:52;;;;;;;0.30;0.30;;;;;;;4.55;81.96;95111.97;5037006;28;20237;-72
2022/02/21 06:05:20;;;;;;;0.30;0.30;;;;;;;4.89;79.93;95106.28;5037449;28;20693;-72
2022/02/21 06:07:46;;;;;;;0.30;0.30;;;;;;;4.65;79.40;95120.44;5037647;28;20213;-73
2022/02/21 06:10:13;;;;;;;0.20;0.20;;;;;;;4.75;75.79;95111.41;5036619;28;21153;-72
2022/02/21 06:12:39;;;;;;;0.43;0.37;;;;;;;4.82;74.19;95127.22;5036959;28;20201;-72
2022/02/21 06:15:08;;;;;;;1.27;0.53;;;;;;;5.05;73.34;95144.56;5037242;28;20208;-72
2022/02/21 06:17:35;;;;;;;0.40;0.40;;;;;;;5.12;72.67;95115.00;5037455;28;20229;-73
2022/02/21 06:20:01;;;;;;;0.30;0.30;;;;;;;5.06;71.03;95115.66;5036845;28;20228;-70
2022/02/21 06:22:29;;;;;;;0.30;0.30;;;;;;;5.34;72.53;95121.25;5036971;28;20216;-70
2022/02/21 06:24:56;;;;;;;0.37;0.37;;;;;;;5.12;71.38;95140.28;5037901;28;20564;-70
2022/02/21 06:27:22;;;;;;;0.20;0.20;;;;;;;5.13;71.28;95137.50;5036701;28;20209;-70
2022/02/21 06:29:49;;;;;;;2.53;0.60;;;;;;;5.10;71.13;95163.94;5037219;28;20197;-69
2022/02/21 06:32:15;;;;;;;0.30;0.30;;;;;;;5.12;71.47;95175.03;5037016;28;20229;-69
2022/02/21 06:34:42;;;;;;;0.40;0.40;;;;;;;5.28;71.08;95192.44;5037344;28;20208;-70
2022/02/21 06:37:08;;;;;;;0.60;0.60;;;;;;;5.20;70.25;95169.78;5037038;28;20205;-69
2022/02/21 06:39:36;;;;;;;0.30;0.30;;;;;;;5.44;71.53;95160.00;5036694;28;20224;-69
2022/02/21 06:42:03;;;;;;;0.43;0.30;;;;;;;5.28;72.72;95177.56;5036863;28;20225;-69
2022/02/21 06:44:29;;;;;;;0.30;0.30;;;;;;;5.31;71.57;95177.25;5033634;28;20219;-69
2022/02/21 06:46:56;;;;;;;0.50;0.50;;;;;;;5.29;72.03;95168.75;5037192;28;20215;-69
2022/02/21 06:49:22;;;;;;;0.30;0.30;;;;;;;5.28;73.16;95169.72;5036852;28;20197;-70
2022/02/21 06:51:49;;;;;;;0.20;0.20;;;;;;;5.28;73.27;95161.88;5036841;28;20282;-69
2022/02/21 06:54:17;;;;;;;0.30;0.30;;;;;;;5.37;73.27;95149.63;5036205;28;20204;-70
2022/02/21 06:56:45;;;;;;;0.60;0.60;;;;;;;5.50;73.48;95109.69;5036698;28;20308;-69
2022/02/21 06:59:12;;;;;;;0.87;0.70;;;;;;;5.42;74.18;95105.50;5034818;28;20229;-69
2022/02/21 07:01:38;;;;;;;2.00;0.40;;;;;;;5.48;74.12;95110.84;5036951;28;20672;-69
2022/02/21 07:04:05;;;;;;;0.30;0.30;;;;;;;5.37;74.15;95102.59;5036040;28;20244;-70
2022/02/21 07:06:35;;;;;;;0.20;0.20;;;;;;;5.39;74.54;95148.47;5036575;28;20205;-69
2022/02/21 07:09:01;;;;;;;0.30;0.30;;;;;;;5.40;75.43;95159.72;5036841;28;20205;-70
2022/02/21 07:11:27;;;;;;;1.73;0.90;;;;;;;5.33;76.44;95175.25;5036223;28;20746;-69
2022/02/21 07:13:55;;;;;;;0.87;0.57;;;;;;;5.44;76.07;95173.06;5036365;28;20634;-70
2022/02/21 07:16:22;;;;;;;0.50;0.50;;;;;;;5.34;75.96;95179.50;5036808;28;20205;-70
2022/02/21 07:18:49;;;;;;;1.70;0.57;;;;;;;5.41;76.20;95214.41;5036528;28;20241;-69
2022/02/21 07:21:16;;;;;;;0.47;0.40;;;;;;;5.47;76.41;95229.38;5039421;28;20229;-69
2022/02/21 07:23:42;;;;;;;5.70;0.83;;;;;;;5.40;76.51;95241.50;5039980;28;20201;-69
2022/02/21 07:26:08;;;;;;;0.77;0.60;;;;;;;5.39;76.96;95232.03;5040779;28;20205;-68
2022/02/21 07:28:35;;;;;;;0.87;0.80;;;;;;;5.54;76.61;95256.47;5040429;28;20579;-70
2022/02/21 07:31:06;;;;;;;3.70;0.40;;;;;;;5.61;76.91;95280.91;5040224;28;20227;-69
2022/02/21 07:33:33;;;;;;;0.40;0.40;;;;;;;5.39;77.11;95286.91;5039575;28;20233;-69
2022/02/21 07:35:59;;;;;;;0.40;0.40;;;;;;;5.48;77.17;95288.50;5040713;28;20262;-70
2022/02/21 07:38:26;;;;;;;0.87;0.87;;;;;;;5.48;77.01;95288.50;5040327;28;20201;-70
2022/02/21 07:40:52;;;;;;;4.23;1.13;;;;;;;5.48;77.69;95309.41;5040016;28;20232;-70
2022/02/21 07:43:19;;;;;;;2.43;1.37;;;;;;;5.48;77.27;95302.34;5037276;28;20674;-69
2022/02/21 07:45:45;;;;;;;0.93;0.40;;;;;;;5.46;76.56;95280.03;5040252;28;20204;-69
2022/02/21 07:48:13;;;;;;;4.43;1.53;;;;;;;5.64;76.38;95267.53;5040376;28;20833;-69
2022/02/21 07:50:39;;;;;;;0.73;0.73;;;;;;;5.47;74.85;95284.25;5040158;28;20229;-69
2022/02/21 07:53:07;;;;;;;1.70;0.80;;;;;;;5.67;74.50;95267.19;5039205;28;20212;-69
2022/02/21 07:55:34;;;;;;;1.07;0.70;;;;;;;5.70;72.71;95262.44;5040174;28;20198;-69
2022/02/21 07:58:00;;;;;;;4.40;1.77;;;;;;;5.74;72.58;95286.41;5040203;28;20209;-69
2022/02/21 08:00:27;;;;;;;1.67;0.60;;;;;;;5.84;72.36;95289.66;5039619;28;20221;-69
2022/02/21 08:02:53;;;;;;;2.03;0.93;;;;;;;5.73;71.53;95300.50;5039226;28;20805;-69
2022/02/21 08:05:21;;;;;;;1.13;0.40;;;;;;;5.78;71.77;95301.63;5039773;28;20765;-69
2022/02/21 08:07:48;;;;;;;0.40;0.40;;;;;;;5.72;70.78;95301.47;5039725;28;20208;-69
2022/02/21 08:10:15;;;;;;;1.43;0.67;;;;;;;5.84;70.35;95319.25;5040136;28;20228;-69
2022/02/21 08:12:42;;;;;;;0.80;0.80;;;;;;;5.68;69.32;95323.69;5039093;28;20201;-69
2022/02/21 08:15:09;;;;;;;0.97;0.50;;;;;;;5.94;70.08;95334.72;5038051;28;20472;-69
2022/02/21 08:17:40;;;;;;;0.50;0.50;;;;;;;5.95;69.73;95349.44;5037620;28;20220;-69
2022/02/21 08:20:08;;;;;;;0.63;0.63;;;;;;;5.93;69.69;95372.31;5039159;28;20784;-69
2022/02/21 08:22:37;;;;;;;0.73;0.50;;;;;;;6.07;68.91;95382.84;5038143;28;20711;-69
2022/02/21 08:25:05;;;;;;;0.40;0.40;;;;;;;5.98;68.22;95375.22;5038624;28;20201;-69
2022/02/21 08:27:32;;;;;;;0.43;0.43;;;;;;;5.85;68.13;95388.03;5039172;28;20205;-68
2022/02/21 08:29:58;;;;;;;0.97;0.60;;;;;;;5.81;68.00;95390.16;5038729;28;20212;-69
2022/02/21 08:32:24;;;;;;;1.57;0.50;;;;;;;5.97;67.72;95394.50;5037351;28;20632;-69
2022/02/21 08:34:51;;;;;;;3.30;0.60;;;;;;;5.70;67.88;95427.09;5038914;28;20209;-69
2022/02/21 08:37:17;;;;;;;0.50;0.50;;;;;;;5.86;68.60;95434.09;5038769;28;20224;-69
2022/02/21 08:39:45;;;;;;;0.70;0.70;;;;;;;5.91;67.21;95429.19;5038388;28;20231;-68
2022/02/21 08:42:12;;;;;;;3.37;1.10;;;;;;;5.74;66.66;95466.75;5037692;28;20232;-69
2022/02/21 08:44:38;;;;;;;4.37;1.73;;;;;;;5.85;66.47;95450.75;5035702;28;20521;-68
2022/02/21 08:47:05;;;;;;;2.37;1.47;;;;;;;5.88;66.36;95463.50;5038464;28;20727;-71
2022/02/21 08:49:31;;;;;;;0.20;0.20;;;;;;;5.99;66.60;95468.38;5038580;28;20205;-69
2022/02/21 08:51:58;;;;;;;1.53;0.77;;;;;;;6.10;66.36;95474.88;5038218;28;20287;-69
2022/02/21 08:54:24;;;;;;;1.33;1.00;;;;;;;6.23;65.86;95472.53;5037350;28;20255;-69
2022/02/21 08:56:52;;;;;;;0.97;0.67;;;;;;;6.45;65.38;95484.06;5038212;28;20208;-69
2022/02/21 08:59:19;;;;;;;0.53;0.30;;;;;;;6.28;66.02;95488.53;5038125;28;20685;-69
2022/02/21 09:01:45;;;;;;;10.00;0.50;;;;;;;6.31;66.23;95490.00;5037900;28;20267;-69
2022/02/21 09:04:12;;;;;;;2.23;0.50;;;;;;;6.34;66.85;95493.09;5037192;28;20205;-69
2022/02/21 09:06:39;;;;;;;0.80;0.43;;;;;;;6.21;67.48;95510.28;5038293;28;20216;-68
2022/02/21 09:09:06;;;;;;;0.60;0.60;;;;;;;6.28;67.41;95483.31;5038438;28;20582;-69
2022/02/21 09:11:32;;;;;;;1.23;0.80;;;;;;;6.21;68.05;95482.34;5037694;28;20221;-69
2022/02/21 09:14:00;;;;;;;2.50;0.80;;;;;;;6.29;68.75;95495.41;5037478;28;20788;-68
2022/02/21 09:16:26;;;;;;;0.77;0.53;;;;;;;6.21;69.12;95513.75;5037780;28;20204;-69
2022/02/21 09:18:53;;;;;;;1.43;0.63;;;;;;;6.21;68.83;95511.13;5037309;28;20209;-69
2022/02/21 09:21:19;;;;;;;0.40;0.40;;;;;;;6.13;68.95;95505.91;5038085;28;20252;-69
2022/02/21 09:23:46;;;;;;;2.57;0.97;;;;;;;6.09;68.52;95509.84;5037471;28;20205;-69
2022/02/21 09:26:12;;;;;;;0.63;0.63;;;;;;;6.23;69.49;95509.16;5037289;28;20215;-69
2022/02/21 09:28:38;;;;;;;0.40;0.40;;;;;;;6.33;69.09;95498.50;5037626;28;20641;-69
2022/02/21 09:31:06;;;;;;;0.50;0.50;;;;;;;6.20;68.72;95512.13;5038066;28;20225;-69
2022/02/21 09:33:33;;;;;;;2.03;1.13;;;;;;;6.14;69.92;95512.78;5036551;28;20201;-69
2022/02/21 09:35:59;;;;;;;0.30;0.30;;;;;;;6.20;69.55;95517.34;5037235;28;20228;-69
2022/02/21 09:38:26;;;;;;;0.30;0.30;;;;;;;6.33;69.27;95506.34;5037528;28;20205;-69
2022/02/21 09:40:55;;;;;;;0.50;0.50;;;;;;;6.55;69.22;95492.53;5037182;28;20515;-69
2022/02/21 09:43:26;;;;;;;2.10;0.60;;;;;;;6.40;68.63;95507.28;5033276;28;20424;-69
2022/02/21 09:45:57;;;;;;;5.83;0.60;;;;;;;6.56;70.21;95497.59;5037288;28;20677;-68
2022/02/21 09:48:27;;;;;;;1.27;0.43;;;;;;;6.69;70.17;95492.59;5037251;28;20209;-69
2022/02/21 09:50:58;;;;;;;1.00;0.90;;;;;;;6.39;70.82;95506.50;5037210;28;20229;-69
2022/02/21 09:53:26;;;;;;;0.53;0.53;;;;;;;6.60;70.88;95500.69;5036528;28;20209;-69
2022/02/21 09:55:53;;;;;;;0.50;0.50;;;;;;;6.58;70.52;95484.31;5036775;28;20220;-69
2022/02/21 09:58:20;;;;;;;0.20;0.20;;;;;;;6.80;69.97;95481.75;5037124;28;20220;-69
2022/02/21 10:00:46;;;;;;;0.20;0.20;;;;;;;6.51;70.26;95486.00;5037221;28;20772;-69
2022/02/21 10:03:13;;;;;;;0.37;0.33;;;;;;;6.64;70.82;95473.97;5036310;28;20266;-69
2022/02/21 10:05:42;;;;;;;1.43;0.93;;;;;;;6.87;70.84;95474.84;5037596;28;20211;-69
2022/02/21 10:08:12;;;;;;;1.23;0.60;;;;;;;6.91;70.19;95489.22;5036703;28;20251;-69
2022/02/21 10:10:38;;;;;;;2.10;0.70;;;;;;;6.56;70.51;95481.06;5036554;28;20224;-69
2022/02/21 10:13:05;;;;;;;4.43;0.60;;;;;;;6.48;72.04;95487.16;5036515;28;20251;-70
2022/02/21 10:15:32;;;;;;;1.27;0.87;;;;;;;6.67;72.14;95490.16;5036730;28;20212;-69
2022/02/21 10:18:13;;;;;;;0.60;0.50;;;;;;;6.64;71.51;95481.84;5036359;28;20291;-68
2022/02/21 10:20:57;;;;;;;1.50;0.30;;;;;;;6.78;71.78;95489.78;5036140;28;20228;-69
2022/02/21 10:23:25;;;;;;;0.20;0.20;;;;;;;6.48;73.18;95481.91;5036307;28;20247;-69
2022/02/21 10:25:56;;;;;;;1.60;0.93;;;;;;;6.70;72.05;95504.72;5036659;28;20205;-68
2022/02/21 10:28:28;;;;;;;0.30;0.30;;;;;;;6.81;72.85;95499.06;5036600;28;21046;-69
2022/02/21 10:31:15;;;;;;;0.30;0.30;;;;;;;6.94;71.77;95501.97;5036505;28;20601;-69
2022/02/21 10:33:49;;;;;;;0.30;0.30;;;;;;;6.76;71.61;95496.19;5036191;28;20204;-69
2022/02/21 10:36:31;;;;;;;2.07;0.50;;;;;;;6.91;71.36;95489.22;5036426;28;20296;-68
2022/02/21 10:38:58;;;;;;;1.43;0.60;;;;;;;6.96;71.14;95489.50;5036373;28;20492;-69
2022/02/21 10:41:39;;;;;;;1.40;0.93;;;;;;;7.02;70.86;95473.09;5036743;28;20232;-69
2022/02/21 10:44:17;;;;;;;2.10;0.97;;;;;;;7.07;71.08;95491.75;5033233;28;20212;-68
2022/02/21 10:46:58;;;;;;;1.97;0.60;;;;;;;7.00;71.52;95477.69;5036574;28;20205;-69
2022/02/21 10:49:24;;;;;;;1.30;0.73;;;;;;;6.85;69.99;95485.47;5037048;28;20690;-69
2022/02/21 10:51:55;;;;;;;0.50;0.50;;;;;;;7.45;70.62;95457.56;5036413;28;20709;-69
2022/02/21 10:54:28;;;;;;;0.43;0.43;;;;;;;7.37;70.39;95457.63;5035283;28;20558;-69
2022/02/21 10:56:54;;;;;;;0.50;0.50;;;;;;;7.37;70.37;95468.09;5036003;28;20673;-69
2022/02/21 10:59:21;;;;;;;1.27;0.80;;;;;;;7.82;71.23;95453.09;5037142;28;20670;-69
2022/02/21 11:01:49;;;;;;;2.90;1.03;;;;;;;7.46;69.90;95444.25;5035756;28;20229;-69
2022/02/21 11:04:15;;;;;;;2.70;1.03;;;;;;;7.66;71.79;95445.41;5034879;28;20316;-69
2022/02/21 11:06:42;;;;;;;7.13;0.97;;;;;;;7.39;70.56;95448.56;5036323;28;20564;-68
2022/02/21 11:09:12;;;;;;;1.00;0.77;;;;;;;7.87;71.43;95464.66;5035907;28;20220;-69
2022/02/21 11:11:46;;;;;;;3.53;0.90;;;;;;;7.77;72.13;95444.94;5035888;28;20221;-69
2022/02/21 11:14:16;;;;;;;1.20;0.57;;;;;;;7.91;69.97;95441.53;5035634;28;20209;-69
2022/02/21 11:16:45;;;;;;;1.00;0.80;;;;;;;7.81;71.34;95443.59;5036328;28;20590;-69
2022/02/21 11:19:12;;;;;;;4.17;0.93;;;;;;;7.78;70.26;95451.84;5035963;28;20217;-69
2022/02/21 11:21:39;;;;;;;3.00;0.90;;;;;;;8.30;68.68;95461.28;5035744;28;20760;-69
2022/02/21 11:24:07;;;;;;;0.60;0.60;;;;;;;8.42;67.45;95443.28;5034862;28;20527;-69
2022/02/21 11:26:39;;;;;;;1.20;0.97;;;;;;;8.36;66.71;95436.13;5035594;28;20925;-69
2022/02/21 11:29:12;;;;;;;1.47;0.67;;;;;;;8.61;66.83;95449.56;5036044;28;20950;-69
2022/02/21 11:31:41;;;;;;;1.03;0.53;;;;;;;8.89;66.63;95432.13;5035847;28;20625;-69
2022/02/21 11:34:10;;;;;;;1.43;0.60;;;;;;;8.45;65.95;95445.53;5034883;28;20704;-69
2022/02/21 11:36:38;;;;;;;0.50;0.50;;;;;;;7.90;66.13;95447.75;5035487;28;20673;-69
2022/02/21 11:39:20;;;;;;;0.57;0.57;;;;;;;7.81;67.52;95451.47;5036210;28;20224;-69